createdAt,value
2018-05-26T00:02:01.629Z,20.80
2018-05-26T00:04:27.590Z,20.80
2018-05-26T00:06:53.545Z,20.70
2018-05-26T00:09:19.489Z,20.70
2018-05-26T00:11:45.465Z,20.80
2018-05-26T00:14:11.481Z,20.80
2018-05-26T00:16:37.499Z,20.70
2018-05-26T00:19:03.528Z,20.70
2018-05-26T00:21:29.508Z,20.60
2018-05-26T00:24:02.272Z,20.50
2018-05-26T00:26:28.245Z,20.50
2018-05-26T00:28:54.201Z,20.50
2018-05-26T00:31:20.194Z,20.50
2018-05-26T00:33:46.135Z,20.50
2018-05-26T00:36:12.100Z,20.50
2018-05-26T00:38:38.772Z,20.50
2018-05-26T00:41:04.949Z,20.40
2018-05-26T00:43:30.941Z,20.40
2018-05-26T00:45:57.091Z,20.30
2018-05-26T00:48:23.113Z,20.40
2018-05-26T00:50:49.088Z,20.20
2018-05-26T00:53:15.048Z,20.20
2018-05-26T00:55:41.003Z,20.00
2018-05-26T00:58:07.170Z,20.00
2018-05-26T01:00:34.130Z,20.00
2018-05-26T01:03:00.108Z,20.00
2018-05-26T01:05:26.216Z,20.00
2018-05-26T01:07:52.200Z,19.90
2018-05-26T01:10:18.168Z,20.00
2018-05-26T01:12:44.187Z,20.10
2018-05-26T01:15:10.200Z,20.00
2018-05-26T01:17:36.275Z,20.10
2018-05-26T01:20:02.231Z,20.10
2018-05-26T01:22:28.202Z,20.00
2018-05-26T01:24:54.222Z,20.00
2018-05-26T01:27:20.174Z,19.80
2018-05-26T01:29:46.141Z,19.80
2018-05-26T01:32:12.122Z,19.80
2018-05-26T01:34:38.186Z,19.80
2018-05-26T01:37:04.188Z,19.70
2018-05-26T01:39:30.182Z,19.60
2018-05-26T01:41:56.143Z,19.60
2018-05-26T01:44:22.115Z,19.70
2018-05-26T01:46:48.085Z,19.60
2018-05-26T01:49:14.103Z,19.60
2018-05-26T01:51:40.102Z,19.60
2018-05-26T01:54:06.263Z,19.50
2018-05-26T01:56:32.246Z,19.40
2018-05-26T01:58:58.246Z,19.30
2018-05-26T02:01:24.244Z,19.30
2018-05-26T02:03:50.203Z,19.30
2018-05-26T02:06:16.170Z,19.20
2018-05-26T02:08:42.172Z,19.30
2018-05-26T02:11:15.004Z,19.20
2018-05-26T02:13:41.009Z,19.10
2018-05-26T02:16:06.950Z,19.20
2018-05-26T02:18:32.886Z,19.20
2018-05-26T02:20:58.862Z,19.20
2018-05-26T02:23:24.863Z,19.20
2018-05-26T02:25:51.370Z,19.10
2018-05-26T02:28:17.345Z,19.00
2018-05-26T02:30:43.383Z,19.00
2018-05-26T02:33:09.351Z,19.00
2018-05-26T02:35:35.359Z,18.90
2018-05-26T02:38:01.336Z,18.80
2018-05-26T02:40:27.315Z,18.70
2018-05-26T02:42:53.308Z,18.70
2018-05-26T02:45:19.290Z,18.70
2018-05-26T02:47:45.265Z,18.60
2018-05-26T02:50:11.224Z,18.60
2018-05-26T02:52:37.206Z,18.70
2018-05-26T02:55:03.162Z,18.70
2018-05-26T02:57:29.122Z,18.70
2018-05-26T02:59:55.066Z,18.80
2018-05-26T03:02:21.029Z,18.80
2018-05-26T03:04:52.932Z,18.80
2018-05-26T03:07:24.959Z,18.80
2018-05-26T03:09:57.045Z,18.70
2018-05-26T03:12:29.061Z,18.80
2018-05-26T03:14:54.994Z,18.80
2018-05-26T03:20:27.739Z,18.70
2018-05-26T03:22:53.690Z,18.70
2018-05-26T03:25:19.650Z,18.60
2018-05-26T03:27:45.628Z,18.60
2018-05-26T03:30:11.572Z,18.50
2018-05-26T03:32:37.596Z,18.50
2018-05-26T03:35:03.601Z,18.50
2018-05-26T03:37:29.465Z,18.50
2018-05-26T03:39:55.410Z,18.60
2018-05-26T03:42:21.356Z,18.50
2018-05-26T03:44:47.379Z,18.40
2018-05-26T03:47:13.328Z,18.40
2018-05-26T03:49:39.338Z,18.50
2018-05-26T03:52:05.262Z,18.60
2018-05-26T03:54:43.577Z,18.60
2018-05-26T03:57:21.834Z,18.70
2018-05-26T04:02:49.790Z,18.70
2018-05-26T04:05:15.805Z,18.70
2018-05-26T04:07:41.746Z,18.70
2018-05-26T04:10:07.724Z,18.70
2018-05-26T04:12:33.672Z,18.70
2018-05-26T04:14:59.609Z,18.70
2018-05-26T04:17:25.570Z,18.70
2018-05-26T04:19:51.574Z,18.60
2018-05-26T04:22:17.505Z,18.70
2018-05-26T04:24:43.506Z,18.70
2018-05-26T04:27:09.490Z,18.70
2018-05-26T04:29:35.619Z,18.60
2018-05-26T04:32:01.592Z,18.70
2018-05-26T04:34:27.625Z,18.70
2018-05-26T04:36:53.651Z,18.80
2018-05-26T04:39:19.603Z,18.80
2018-05-26T04:41:45.552Z,18.80
2018-05-26T04:44:11.514Z,18.90
2018-05-26T04:46:37.468Z,18.90
2018-05-26T04:49:03.475Z,19.00
2018-05-26T04:51:29.449Z,19.20
2018-05-26T04:53:55.442Z,19.10
2018-05-26T04:56:21.397Z,19.10
2018-05-26T04:58:47.340Z,19.00
2018-05-26T05:01:13.320Z,19.10
2018-05-26T05:03:39.353Z,19.10
2018-05-26T05:06:05.313Z,19.10
2018-05-26T05:08:31.284Z,19.10
2018-05-26T05:10:57.323Z,19.10
2018-05-26T05:13:23.304Z,19.20
2018-05-26T05:15:49.298Z,19.30
2018-05-26T05:18:15.314Z,19.50
2018-05-26T05:20:41.289Z,19.50
2018-05-26T05:23:07.272Z,19.60
2018-05-26T05:25:33.261Z,19.60
2018-05-26T05:27:59.254Z,19.70
2018-05-26T05:30:25.220Z,19.70
2018-05-26T05:32:51.174Z,19.70
2018-05-26T05:35:17.134Z,19.70
2018-05-26T05:37:43.104Z,19.80
2018-05-26T05:40:09.069Z,19.90
2018-05-26T05:42:41.957Z,20.00
2018-05-26T05:45:07.929Z,20.10
2018-05-26T05:47:33.913Z,20.20
2018-05-26T05:49:59.931Z,20.20
2018-05-26T05:52:25.896Z,20.20
2018-05-26T05:54:52.030Z,20.30
2018-05-26T05:57:18.024Z,20.40
2018-05-26T05:59:44.099Z,20.40
2018-05-26T06:02:10.087Z,20.50
2018-05-26T06:04:36.041Z,20.70
2018-05-26T06:07:02.016Z,20.60
2018-05-26T06:09:27.991Z,20.70
2018-05-26T06:11:53.946Z,20.70
2018-05-26T06:14:19.885Z,20.70
2018-05-26T06:16:45.855Z,20.70
2018-05-26T06:19:11.804Z,20.70
2018-05-26T06:21:37.817Z,20.80
2018-05-26T06:24:03.830Z,20.80
2018-05-26T06:26:30.445Z,20.80
2018-05-26T06:28:56.403Z,20.90
2018-05-26T06:31:22.384Z,21.00
2018-05-26T06:33:48.404Z,21.00
2018-05-26T06:36:15.931Z,20.90
2018-05-26T06:38:42.391Z,20.80
2018-05-26T06:41:08.341Z,21.10
2018-05-26T06:43:34.477Z,21.30
2018-05-26T06:46:00.528Z,21.40
2018-05-26T06:48:26.650Z,21.50
2018-05-26T06:50:52.667Z,21.60
2018-05-26T06:53:18.847Z,21.70
2018-05-26T06:55:45.824Z,21.80
2018-05-26T06:58:12.765Z,21.70
2018-05-26T07:00:38.790Z,21.70
2018-05-26T07:03:05.727Z,21.80
2018-05-26T07:05:31.750Z,21.90
2018-05-26T07:07:57.827Z,22.10
2018-05-26T07:10:24.296Z,22.30
2018-05-26T07:12:50.328Z,22.30
2018-05-26T07:15:16.348Z,22.40
2018-05-26T07:17:43.780Z,22.40
2018-05-26T07:20:16.625Z,22.40
2018-05-26T07:22:42.629Z,22.40
2018-05-26T07:25:08.665Z,22.60
2018-05-26T07:27:35.243Z,22.60
2018-05-26T07:30:01.623Z,22.80
2018-05-26T07:32:27.606Z,22.80
2018-05-26T07:34:53.593Z,22.90
2018-05-26T07:37:20.495Z,23.00
2018-05-26T07:39:46.561Z,22.90
2018-05-26T07:42:12.627Z,22.90
2018-05-26T07:44:38.661Z,22.90
2018-05-26T07:47:04.639Z,23.00
2018-05-26T07:49:30.724Z,22.90
2018-05-26T07:51:56.786Z,22.90
2018-05-26T07:54:22.810Z,22.90
2018-05-26T07:56:50.722Z,22.90
2018-05-26T07:59:16.737Z,23.00
2018-05-26T08:01:42.968Z,23.10
2018-05-26T08:04:09.089Z,23.20
2018-05-26T08:06:35.062Z,23.40
2018-05-26T08:09:01.041Z,23.30
2018-05-26T08:11:27.074Z,23.50
2018-05-26T08:13:53.094Z,23.40
2018-05-26T08:16:19.140Z,23.40
2018-05-26T08:18:45.265Z,23.40
2018-05-26T08:21:11.345Z,23.70
2018-05-26T08:23:37.309Z,23.70
2018-05-26T08:26:03.273Z,23.70
2018-05-26T08:28:29.235Z,23.70
2018-05-26T08:30:55.244Z,24.00
2018-05-26T08:33:22.258Z,24.00
2018-05-26T08:35:48.297Z,24.10
2018-05-26T08:38:15.298Z,24.20
2018-05-26T08:40:41.681Z,24.30
2018-05-26T08:43:07.679Z,24.40
2018-05-26T08:45:33.710Z,24.40
2018-05-26T08:48:01.287Z,24.40
2018-05-26T08:50:27.284Z,24.40
2018-05-26T08:52:54.222Z,24.40
2018-05-26T08:55:20.293Z,24.40
2018-05-26T09:14:31.310Z,25.00
2018-05-26T09:16:57.314Z,25.30
2018-05-26T09:19:25.017Z,25.40
2018-05-26T09:21:51.078Z,25.40
2018-05-26T09:24:19.877Z,25.40
2018-05-26T09:26:46.970Z,25.50
2018-05-26T09:29:14.028Z,25.50
2018-05-26T09:31:40.299Z,25.50
2018-05-26T09:34:06.309Z,25.50
2018-05-26T09:36:33.577Z,25.40
2018-05-26T09:39:01.172Z,25.50
2018-05-26T09:41:27.245Z,25.60
2018-05-26T09:43:53.452Z,25.50
2018-05-26T09:46:20.058Z,25.60
2018-05-26T09:48:46.317Z,25.60
2018-05-26T09:51:12.331Z,25.80
2018-05-26T09:53:38.625Z,25.90
2018-05-26T09:56:04.699Z,26.10
2018-05-26T09:58:33.187Z,26.20
2018-05-26T10:01:00.185Z,26.30
2018-05-26T10:03:26.201Z,26.30
2018-05-26T10:05:52.890Z,26.10
2018-05-26T10:08:19.575Z,26.10
2018-05-26T10:10:45.645Z,26.20
2018-05-26T10:13:11.691Z,26.30
2018-05-26T10:15:37.669Z,26.30
2018-05-26T10:18:04.407Z,26.40
2018-05-26T10:20:30.459Z,26.50
2018-05-26T10:22:57.092Z,26.50
2018-05-26T10:25:25.929Z,26.60
2018-05-26T10:27:52.064Z,26.70
2018-05-26T10:30:19.748Z,26.80
2018-05-26T10:32:45.915Z,26.80
2018-05-26T10:35:12.057Z,26.90
2018-05-26T10:37:38.367Z,27.10
2018-05-26T10:40:04.545Z,27.10
2018-05-26T10:59:15.385Z,26.90
2018-05-26T11:01:42.431Z,27.00
2018-05-26T11:04:09.415Z,27.30
2018-05-26T11:06:46.559Z,27.50
2018-05-26T11:09:12.575Z,27.80
2018-05-26T11:11:38.559Z,27.90
2018-05-26T11:14:04.851Z,27.70
2018-05-26T11:16:30.920Z,27.90
2018-05-26T11:18:56.964Z,28.00
2018-05-26T11:21:22.952Z,28.20
2018-05-26T11:23:49.030Z,28.20
2018-05-26T11:26:14.997Z,28.30
2018-05-26T11:28:40.958Z,28.10
2018-05-26T11:31:07.178Z,28.10
2018-05-26T11:33:33.410Z,28.40
2018-05-26T11:35:59.537Z,28.50
2018-05-26T11:38:26.103Z,28.60
2018-05-26T11:40:52.201Z,28.70
2018-05-26T11:43:18.292Z,28.80
2018-05-26T11:45:45.289Z,28.90
2018-05-26T11:48:11.511Z,29.00
2018-05-26T11:50:38.778Z,29.00
2018-05-26T11:53:04.933Z,29.20
2018-05-26T11:55:30.990Z,29.10
2018-05-26T11:57:57.029Z,29.20
2018-05-26T12:00:23.013Z,29.40
2018-05-26T12:02:49.182Z,29.40
2018-05-26T12:05:15.218Z,29.50
2018-05-26T12:07:41.205Z,29.50
2018-05-26T12:10:07.157Z,29.50
2018-05-26T12:12:34.169Z,29.50
2018-05-26T12:15:00.078Z,29.60
2018-05-26T12:17:26.114Z,29.70
2018-05-26T12:19:54.077Z,29.80
2018-05-26T12:22:20.131Z,29.70
2018-05-26T12:24:46.164Z,29.70
2018-05-26T12:27:12.342Z,29.90
2018-05-26T12:29:38.404Z,29.90
2018-05-26T12:32:04.396Z,30.00
2018-05-26T12:34:30.634Z,30.30
2018-05-26T12:36:56.652Z,30.40
2018-05-26T12:56:07.314Z,31.10
2018-05-26T12:58:34.326Z,30.90
2018-05-26T13:01:00.389Z,30.90
2018-05-26T13:03:26.999Z,31.00
2018-05-26T13:05:52.974Z,31.10
2018-05-26T13:08:19.065Z,30.80
2018-05-26T13:10:45.123Z,30.70
2018-05-26T13:13:11.042Z,30.80
2018-05-26T13:15:37.033Z,31.00
2018-05-26T13:18:03.053Z,31.20
2018-05-26T13:20:30.336Z,31.40
2018-05-26T13:22:56.368Z,31.60
2018-05-26T13:25:22.357Z,31.70
2018-05-26T13:27:48.341Z,31.80
2018-05-26T13:30:14.356Z,31.80
2018-05-26T13:32:40.364Z,32.00
2018-05-26T13:35:06.432Z,32.10
2018-05-26T13:37:32.615Z,32.10
2018-05-26T13:39:58.601Z,32.10
2018-05-26T13:42:24.594Z,32.10
2018-05-26T13:44:50.587Z,32.10
2018-05-26T13:47:16.630Z,32.20
2018-05-26T13:49:42.592Z,32.20
2018-05-26T13:52:08.717Z,32.10
2018-05-26T13:54:35.138Z,31.90
2018-05-26T13:57:02.933Z,31.40
2018-05-26T13:59:28.975Z,31.30
2018-05-26T14:01:55.257Z,31.20
2018-05-26T14:04:21.568Z,31.50
2018-05-26T14:06:48.588Z,31.80
2018-05-26T14:09:15.744Z,31.90
2018-05-26T14:11:43.758Z,31.90
2018-05-26T14:14:10.838Z,32.00
2018-05-26T14:16:37.414Z,31.90
2018-05-26T14:19:04.058Z,31.90
2018-05-26T14:21:30.187Z,32.10
2018-05-26T14:23:56.345Z,32.10
2018-05-26T14:26:22.457Z,32.20
2018-05-26T14:28:49.632Z,32.20
2018-05-26T14:31:15.771Z,31.70
2018-05-26T14:33:42.501Z,31.10
2018-05-26T14:36:09.290Z,31.10
2018-05-26T14:38:35.438Z,31.30
2018-05-26T14:41:01.523Z,31.50
2018-05-26T14:43:28.696Z,31.90
2018-05-26T14:45:54.833Z,32.20
2018-05-26T14:48:20.892Z,32.30
2018-05-26T14:50:47.271Z,32.40
2018-05-26T14:53:13.367Z,32.60
2018-05-26T14:55:39.582Z,32.90
2018-05-26T14:58:05.750Z,33.00
2018-05-26T15:00:31.736Z,33.10
2018-05-26T15:02:57.753Z,33.40
2018-05-26T15:05:24.746Z,33.40
2018-05-26T15:07:50.800Z,33.30
2018-05-26T15:10:16.827Z,33.30
2018-05-26T15:12:42.943Z,33.40
2018-05-26T15:15:10.510Z,33.40
2018-05-26T15:17:36.588Z,33.40
2018-05-26T15:20:03.322Z,33.90
2018-05-26T15:22:29.491Z,33.80
2018-05-26T15:24:55.703Z,34.10
2018-05-26T15:27:22.931Z,34.20
2018-05-26T15:29:48.980Z,34.20
2018-05-26T15:32:15.056Z,34.30
2018-05-26T15:34:41.094Z,34.30
2018-05-26T15:37:07.812Z,34.20
2018-05-26T15:39:33.879Z,34.10
2018-05-26T15:41:59.900Z,34.00
2018-05-26T15:44:26.057Z,34.00
2018-05-26T15:46:52.191Z,34.10
2018-05-26T15:49:18.269Z,34.20
2018-05-26T15:51:45.077Z,34.30
2018-05-26T15:54:11.211Z,34.30
2018-05-26T15:56:37.193Z,34.00
2018-05-26T15:59:03.400Z,34.10
2018-05-26T16:01:30.297Z,34.60
2018-05-26T16:03:57.134Z,34.70
2018-05-26T16:06:23.365Z,34.70
2018-05-26T16:08:49.461Z,34.50
2018-05-26T16:11:16.436Z,34.40
2018-05-26T16:13:42.471Z,34.30
2018-05-26T16:16:08.532Z,34.40
2018-05-26T16:18:34.587Z,34.40
2018-05-26T16:21:00.610Z,34.50
2018-05-26T16:23:26.688Z,34.20
2018-05-26T16:25:53.111Z,33.90
2018-05-26T16:28:19.171Z,34.00
2018-05-26T16:30:45.388Z,34.30
2018-05-26T16:33:11.378Z,34.40
2018-05-26T16:35:37.465Z,34.20
2018-05-26T16:38:03.595Z,34.20
2018-05-26T16:40:29.669Z,34.10
2018-05-26T16:42:55.789Z,33.90
2018-05-26T16:45:21.982Z,33.60
2018-05-26T16:47:48.005Z,33.60
2018-05-26T16:50:15.050Z,33.50
2018-05-26T16:52:41.889Z,32.90
2018-05-26T16:55:08.694Z,32.60
2018-05-26T16:57:34.711Z,32.50
2018-05-26T17:00:01.412Z,33.00
2018-05-26T17:02:28.208Z,33.30
2018-05-26T17:04:55.906Z,33.50
2018-05-26T17:07:21.990Z,33.40
2018-05-26T17:09:49.021Z,33.40
2018-05-26T17:12:15.049Z,33.40
2018-05-26T17:14:41.394Z,33.50
2018-05-26T17:17:07.417Z,33.30
2018-05-26T17:19:33.484Z,33.10
2018-05-26T17:21:59.679Z,33.00
2018-05-26T17:24:25.887Z,33.00
2018-05-26T17:26:52.229Z,33.00
2018-05-26T17:29:18.455Z,32.80
2018-05-26T17:31:44.656Z,32.80
2018-05-26T17:34:11.115Z,32.90
2018-05-26T17:36:38.117Z,32.90
2018-05-26T17:39:04.261Z,32.80
2018-05-26T17:41:30.574Z,32.80
2018-05-26T17:43:56.859Z,32.70
2018-05-26T17:46:22.922Z,32.60
2018-05-26T17:48:49.790Z,32.70
2018-05-26T17:51:17.779Z,32.70
2018-05-26T17:53:44.042Z,32.60
2018-05-26T17:56:10.993Z,32.70
2018-05-26T17:58:37.012Z,32.70
2018-05-26T18:01:03.158Z,32.60
2018-05-26T18:03:29.307Z,32.70
2018-05-26T18:05:56.079Z,32.80
2018-05-26T18:08:22.196Z,32.80
2018-05-26T18:10:48.427Z,32.80
2018-05-26T18:13:14.559Z,32.90
2018-05-26T18:15:41.561Z,32.80
2018-05-26T18:18:07.879Z,32.80
2018-05-26T18:20:34.055Z,33.00
2018-05-26T18:23:00.288Z,32.80
2018-05-26T18:25:26.353Z,32.60
2018-05-26T18:27:53.902Z,32.70
2018-05-26T18:30:20.184Z,32.70
2018-05-26T18:32:46.315Z,32.60
2018-05-26T18:35:12.389Z,32.60
2018-05-26T18:37:38.460Z,32.70
2018-05-26T18:40:05.277Z,32.80
2018-05-26T18:42:31.339Z,32.70
2018-05-26T18:44:57.507Z,32.80
2018-05-26T18:47:23.671Z,32.80
2018-05-26T18:49:51.941Z,32.80
2018-05-26T18:52:18.961Z,32.60
2018-05-26T18:54:45.112Z,32.40
2018-05-26T18:57:11.214Z,32.10
2018-05-26T18:59:37.388Z,31.60
2018-05-26T19:02:04.276Z,30.40
2018-05-26T19:04:30.604Z,30.40
2018-05-26T19:06:57.352Z,29.70
2018-05-26T19:09:24.132Z,29.50
2018-05-26T19:11:50.155Z,29.40
2018-05-26T19:14:16.179Z,29.30
2018-05-26T19:16:42.182Z,29.20
2018-05-26T19:19:08.947Z,28.80
2018-05-26T19:21:35.013Z,28.70
2018-05-26T19:24:01.149Z,28.60
2018-05-26T19:26:27.199Z,28.40
2018-05-26T19:28:53.250Z,28.20
2018-05-26T19:31:20.193Z,28.00
2018-05-26T19:33:47.032Z,27.80
2018-05-26T19:36:13.943Z,27.70
2018-05-26T19:38:40.051Z,27.70
2018-05-26T19:41:06.051Z,27.70
2018-05-26T19:43:32.828Z,27.60
2018-05-26T19:45:59.324Z,27.60
2018-05-26T19:48:25.384Z,27.50
2018-05-26T19:50:53.107Z,27.30
2018-05-26T19:53:19.290Z,27.20
2018-05-26T19:55:46.290Z,27.20
2018-05-26T19:58:12.578Z,27.10
2018-05-26T20:00:38.794Z,27.20
2018-05-26T20:03:05.846Z,27.00
2018-05-26T20:05:32.691Z,26.90
2018-05-26T20:07:59.727Z,26.90
2018-05-26T20:10:26.871Z,26.80
2018-05-26T20:12:53.836Z,26.70
2018-05-26T20:15:20.038Z,26.80
2018-05-26T20:17:46.550Z,26.80
2018-05-26T20:20:12.689Z,26.70
2018-05-26T20:22:39.008Z,26.60
2018-05-26T20:25:05.996Z,26.50
2018-05-26T20:27:33.340Z,26.40
2018-05-26T20:30:00.654Z,26.20
2018-05-26T20:32:28.243Z,26.30
2018-05-26T20:34:55.161Z,26.20
2018-05-26T20:37:22.600Z,26.10
2018-05-26T20:39:49.293Z,26.20
2018-05-26T20:42:16.508Z,26.10
2018-05-26T20:44:43.494Z,26.10
2018-05-26T20:47:09.638Z,26.10
2018-05-26T20:49:37.612Z,26.00
2018-05-26T20:52:10.473Z,25.90
2018-05-26T20:54:36.682Z,25.90
2018-05-26T20:57:03.747Z,25.80
2018-05-26T20:59:31.214Z,25.70
2018-05-26T21:02:01.706Z,25.60
2018-05-26T21:04:27.773Z,25.50
2018-05-26T21:06:54.204Z,25.50
2018-05-26T21:09:21.246Z,25.40
2018-05-26T21:11:52.055Z,25.30
2018-05-26T21:14:19.210Z,25.30
2018-05-26T21:16:47.125Z,25.20
2018-05-26T21:19:14.098Z,25.10
2018-05-26T21:21:42.628Z,25.00
2018-05-26T21:24:08.662Z,25.00
2018-05-26T21:26:34.822Z,24.90
2018-05-26T21:29:01.054Z,24.90
2018-05-26T21:31:27.464Z,24.80
2018-05-26T21:33:54.855Z,24.90
2018-05-26T21:36:20.952Z,24.80
2018-05-26T21:38:47.048Z,24.90
2018-05-26T21:41:13.845Z,24.90
2018-05-26T21:43:40.403Z,24.80
2018-05-26T21:46:06.506Z,24.80
2018-05-26T21:48:32.893Z,24.80
2018-05-26T21:50:59.012Z,24.70
2018-05-26T21:53:25.206Z,24.70
2018-05-26T21:55:51.537Z,24.60
2018-05-26T21:58:17.752Z,24.60
2018-05-26T22:00:44.005Z,24.60
2018-05-26T22:03:10.497Z,24.60
2018-05-26T22:05:36.658Z,24.60
2018-05-26T22:08:03.519Z,24.40
2018-05-26T22:10:29.934Z,24.20
2018-05-26T22:12:58.617Z,24.10
2018-05-26T22:15:25.053Z,24.10
2018-05-26T22:17:51.636Z,24.20
2018-05-26T22:20:18.139Z,24.10
2018-05-26T22:22:45.110Z,23.90
2018-05-26T22:25:13.146Z,23.90
2018-05-26T22:27:39.319Z,23.90
2018-05-26T22:30:06.173Z,23.70
2018-05-26T22:32:32.287Z,23.70
2018-05-26T22:35:00.137Z,23.80
2018-05-26T22:37:26.302Z,23.70
2018-05-26T22:39:52.417Z,23.80
2018-05-26T22:42:18.701Z,23.70
2018-05-26T22:44:44.786Z,23.70
2018-05-26T22:47:11.653Z,23.70
2018-05-26T22:49:37.722Z,23.60
2018-05-26T22:52:07.257Z,23.60
2018-05-26T22:54:33.552Z,23.60
2018-05-26T22:56:59.748Z,23.60
2018-05-26T22:59:26.537Z,23.50
2018-05-26T23:01:52.735Z,23.40
2018-05-26T23:04:19.585Z,23.50
2018-05-26T23:06:45.989Z,23.40
2018-05-26T23:09:12.068Z,23.40
2018-05-26T23:11:38.133Z,23.30
2018-05-26T23:14:04.263Z,23.20
2018-05-26T23:16:31.117Z,23.20
2018-05-26T23:18:57.095Z,23.20
2018-05-26T23:21:23.120Z,23.10
2018-05-26T23:23:49.131Z,23.00
2018-05-26T23:26:15.156Z,22.80
2018-05-26T23:28:41.193Z,22.70
2018-05-26T23:31:07.194Z,22.70
2018-05-26T23:33:33.264Z,22.70
2018-05-26T23:35:59.269Z,22.80
2018-05-26T23:38:25.327Z,22.90
2018-05-26T23:40:51.999Z,22.80
2018-05-26T23:43:18.237Z,22.70
2018-05-26T23:45:44.607Z,22.60
2018-05-26T23:48:10.746Z,22.60
2018-05-26T23:50:36.717Z,22.50
2018-05-26T23:53:02.741Z,22.60
2018-05-26T23:55:28.833Z,22.70
2018-05-26T23:57:54.965Z,22.60
